Time;durP1;ratioP1;P1;durP2;ratioP2;P2;SDS_P1;SDS_P2;PMS_P1;PMS_P2;Temp;Humidity;BMP_temperature;BMP_pressure;BME280_temperature;BME280_humidity;BME280_pressure;Samples;Min_cycle;Max_cycle;Signal;HPM_P1;HPM_P2
2024/01/15 00:00:51;;;;;;;43.05;18.37;;;1.00;99.90;;;;;;7357796;32;20149;-55
2024/01/15 00:04:52;;;;;;;38.67;18.27;;;1.00;99.90;;;;;;7358982;32;20261;-55
2024/01/15 00:08:54;;;;;;;37.65;18.15;;;1.00;99.90;;;;;;7356065;32;20142;-55
2024/01/15 00:12:56;;;;;;;39.80;17.60;;;1.00;99.90;;;;;;7356256;32;20232;-56
2024/01/15 00:16:58;;;;;;;39.60;17.65;;;0.90;99.90;;;;;;7361136;32;20324;-55
2024/01/15 00:20:59;;;;;;;35.38;17.75;;;0.90;99.90;;;;;;7367410;32;20805;-55
2024/01/15 00:25:02;;;;;;;40.67;18.67;;;0.90;99.90;;;;;;7360966;32;20152;-55
2024/01/15 00:29:04;;;;;;;39.38;18.10;;;0.90;99.90;;;;;;7361367;32;20152;-56
2024/01/15 00:33:06;;;;;;;41.50;18.40;;;0.90;99.90;;;;;;7357581;32;20206;-56
2024/01/15 00:37:08;;;;;;;39.92;18.02;;;0.90;99.90;;;;;;7361874;32;20725;-56
2024/01/15 00:41:09;;;;;;;41.30;18.17;;;0.90;99.90;;;;;;7360266;32;20127;-56
2024/01/15 00:45:11;;;;;;;39.05;18.05;;;1.00;99.90;;;;;;7363612;32;20104;-56
2024/01/15 00:49:13;;;;;;;39.78;18.83;;;1.00;99.90;;;;;;7361685;32;20517;-55
2024/01/15 00:53:16;;;;;;;38.05;16.73;;;1.00;99.90;;;;;;7362183;32;20760;-57
2024/01/15 00:57:18;;;;;;;37.45;17.75;;;1.00;99.90;;;;;;7362200;32;20578;-56
2024/01/15 01:01:20;;;;;;;36.63;17.48;;;1.10;99.90;;;;;;7356913;32;20103;-57
2024/01/15 01:05:22;;;;;;;34.58;16.73;;;1.10;99.90;;;;;;7336762;32;20098;-57
2024/01/15 01:09:24;;;;;;;36.30;17.95;;;1.10;99.90;;;;;;7364768;32;20422;-56
2024/01/15 01:13:26;;;;;;;33.88;15.93;;;1.10;99.90;;;;;;7362516;32;20107;-59
2024/01/15 01:17:28;;;;;;;37.58;17.98;;;1.10;99.90;;;;;;7357576;32;20123;-55
2024/01/15 01:21:30;;;;;;;39.92;19.12;;;1.10;99.90;;;;;;7364719;32;20501;-56
2024/01/15 01:25:32;;;;;;;33.08;17.30;;;1.00;99.90;;;;;;7355287;32;20252;-57
2024/01/15 01:29:34;;;;;;;33.75;16.95;;;1.00;99.90;;;;;;7352745;32;20321;-57
2024/01/15 01:33:39;;;;;;;33.05;17.17;;;1.10;99.90;;;;;;7365065;32;20605;-56
2024/01/15 01:37:42;;;;;;;35.53;17.27;;;1.10;99.90;;;;;;7362556;32;20543;-56
2024/01/15 01:41:43;;;;;;;34.28;16.45;;;1.10;99.90;;;;;;7350877;32;20194;-57
2024/01/15 01:45:45;;;;;;;34.50;17.42;;;1.20;99.90;;;;;;7359168;32;20139;-56
2024/01/15 01:49:47;;;;;;;32.83;15.48;;;1.10;99.90;;;;;;7357065;32;20472;-56
2024/01/15 01:53:50;;;;;;;32.90;17.83;;;1.20;99.90;;;;;;7366389;32;20702;-57
2024/01/15 01:57:52;;;;;;;30.33;16.23;;;1.20;99.90;;;;;;7361776;32;20555;-59
2024/01/15 02:01:55;;;;;;;35.72;17.50;;;1.20;99.90;;;;;;7355586;32;20141;-54
2024/01/15 02:05:57;;;;;;;31.58;16.98;;;1.20;99.90;;;;;;7361245;32;20911;-56
2024/01/15 02:09:59;;;;;;;34.53;15.70;;;1.20;99.90;;;;;;7359329;32;20124;-56
2024/01/15 02:14:02;;;;;;;30.90;17.40;;;1.20;99.90;;;;;;7357398;32;20176;-57
2024/01/15 02:18:06;;;;;;;37.42;16.62;;;1.20;99.90;;;;;;7351607;32;20205;-56
2024/01/15 02:22:08;;;;;;;34.83;16.37;;;1.20;99.90;;;;;;7352823;32;20095;-56
2024/01/15 02:26:10;;;;;;;31.52;16.25;;;1.20;99.90;;;;;;7351958;32;20185;-56
2024/01/15 02:30:12;;;;;;;28.00;14.55;;;1.30;99.90;;;;;;7357678;32;20126;-55
2024/01/15 02:34:14;;;;;;;27.02;14.35;;;1.30;99.90;;;;;;7362957;32;20091;-55
2024/01/15 02:38:16;;;;;;;31.27;15.32;;;1.30;99.90;;;;;;7355492;32;20171;-59
2024/01/15 02:42:18;;;;;;;31.83;14.57;;;1.40;99.90;;;;;;7350938;32;20290;-57
2024/01/15 02:46:20;;;;;;;24.27;10.85;;;1.40;99.90;;;;;;7361657;32;20253;-54
2024/01/15 02:50:22;;;;;;;28.38;12.65;;;1.30;99.90;;;;;;7362830;32;20654;-55
2024/01/15 02:54:23;;;;;;;26.85;12.05;;;1.30;99.90;;;;;;7359319;32;20745;-55
2024/01/15 02:58:25;;;;;;;28.48;12.57;;;1.30;99.90;;;;;;7360053;32;20133;-56
2024/01/15 03:02:27;;;;;;;22.58;11.38;;;1.30;99.90;;;;;;7349111;32;20151;-56
2024/01/15 03:06:29;;;;;;;21.73;11.63;;;1.30;99.90;;;;;;7361187;32;20216;-56
2024/01/15 03:10:30;;;;;;;24.83;11.70;;;1.30;99.90;;;;;;7360738;32;20273;-55
2024/01/15 03:14:32;;;;;;;19.10;11.00;;;1.30;99.90;;;;;;7363171;32;20115;-56
2024/01/15 03:18:34;;;;;;;25.77;12.20;;;1.40;99.90;;;;;;7359797;32;20249;-56
2024/01/15 03:22:36;;;;;;;22.37;11.32;;;1.40;99.90;;;;;;7363780;32;20111;-55
2024/01/15 03:26:38;;;;;;;23.05;12.25;;;1.40;99.90;;;;;;7358193;32;20218;-55
2024/01/15 03:30:40;;;;;;;24.73;12.13;;;1.40;99.90;;;;;;7359076;32;20130;-57
2024/01/15 03:34:41;;;;;;;24.50;12.57;;;1.40;99.90;;;;;;7363268;32;20111;-55
2024/01/15 03:38:43;;;;;;;19.95;12.05;;;1.40;99.90;;;;;;7355240;32;20145;-54
2024/01/15 03:42:45;;;;;;;23.50;11.52;;;1.40;99.90;;;;;;7361195;32;20529;-55
2024/01/15 03:46:47;;;;;;;20.42;11.20;;;1.40;99.90;;;;;;7363098;32;20099;-56
2024/01/15 03:50:48;;;;;;;21.90;11.73;;;1.40;99.90;;;;;;7356659;32;20130;-55
2024/01/15 03:54:50;;;;;;;19.85;10.40;;;1.50;99.90;;;;;;7359316;32;20266;-55
2024/01/15 03:58:52;;;;;;;18.75;11.43;;;1.40;99.90;;;;;;7363757;32;20465;-57
2024/01/15 04:02:54;;;;;;;25.42;12.30;;;1.40;99.90;;;;;;7351128;32;20246;-56
2024/01/15 04:06:55;;;;;;;19.67;11.30;;;1.40;99.90;;;;;;7359182;32;20485;-57
2024/01/15 04:10:57;;;;;;;19.80;11.50;;;1.50;99.90;;;;;;7349878;32;20176;-56
2024/01/15 04:14:59;;;;;;;20.85;11.32;;;1.50;99.90;;;;;;7357301;32;20587;-55
2024/01/15 04:19:01;;;;;;;17.33;11.07;;;1.50;99.90;;;;;;7356872;32;20569;-55
2024/01/15 04:23:03;;;;;;;20.50;11.63;;;1.50;99.90;;;;;;7356333;32;20688;-56
2024/01/15 04:27:05;;;;;;;22.92;11.05;;;1.60;99.90;;;;;;7356163;32;20567;-55
2024/01/15 04:31:07;;;;;;;18.20;10.48;;;1.50;99.90;;;;;;7361670;32;20136;-57
2024/01/15 04:35:09;;;;;;;19.20;10.63;;;1.50;99.90;;;;;;7361941;32;20178;-57
2024/01/15 04:39:11;;;;;;;23.55;10.70;;;1.50;99.90;;;;;;7359346;32;20624;-56
2024/01/15 04:43:13;;;;;;;16.62;10.48;;;1.50;99.90;;;;;;7358664;32;20135;-55
2024/01/15 04:47:15;;;;;;;15.57;7.85;;;1.40;99.90;;;;;;7359168;32;20175;-54
2024/01/15 04:51:16;;;;;;;17.95;10.25;;;1.50;99.90;;;;;;7358454;32;20332;-56
2024/01/15 04:55:32;;;;;;;16.42;9.52;;;1.40;99.90;;;;;;7361105;32;22264;-58
2024/01/15 04:59:35;;;;;;;18.70;9.15;;;1.40;99.90;;;;;;7359460;32;20218;-55
2024/01/15 05:03:36;;;;;;;17.27;9.20;;;1.40;99.90;;;;;;7356593;32;20293;-56
2024/01/15 05:07:38;;;;;;;14.05;9.10;;;1.40;99.90;;;;;;7358232;32;20123;-55
2024/01/15 05:11:40;;;;;;;14.23;9.13;;;1.40;99.90;;;;;;7357055;32;20524;-55
2024/01/15 05:15:42;;;;;;;19.27;9.35;;;1.40;99.90;;;;;;7352731;32;20108;-55
2024/01/15 05:19:44;;;;;;;16.83;9.45;;;1.40;99.90;;;;;;7355080;32;20131;-55
2024/01/15 05:23:45;;;;;;;17.30;9.77;;;1.50;99.90;;;;;;7359301;32;20623;-55
2024/01/15 05:27:47;;;;;;;17.70;9.38;;;1.50;99.90;;;;;;7361130;32;20423;-56
2024/01/15 05:31:49;;;;;;;19.65;9.70;;;1.50;99.90;;;;;;7363513;32;20183;-55
2024/01/15 05:35:51;;;;;;;18.60;9.57;;;1.50;99.90;;;;;;7359351;32;20194;-55
2024/01/15 05:39:53;;;;;;;17.85;8.93;;;1.50;99.90;;;;;;7363317;32;20103;-55
2024/01/15 05:43:55;;;;;;;15.65;8.52;;;1.50;99.90;;;;;;7354170;32;20768;-56
2024/01/15 05:47:57;;;;;;;15.68;9.20;;;1.60;99.90;;;;;;7356861;32;20111;-55
2024/01/15 05:51:59;;;;;;;20.75;8.80;;;1.60;99.90;;;;;;7359736;32;20122;-58
2024/01/15 05:56:01;;;;;;;13.52;8.05;;;1.60;99.90;;;;;;7363025;32;20170;-55
2024/01/15 06:00:04;;;;;;;15.52;8.43;;;1.60;99.90;;;;;;7350045;32;20183;-56
2024/01/15 06:04:06;;;;;;;17.27;8.10;;;1.60;99.90;;;;;;7349791;32;20220;-54
2024/01/15 06:08:08;;;;;;;18.37;8.20;;;1.60;99.90;;;;;;7349637;32;20150;-55
2024/01/15 06:12:10;;;;;;;13.60;7.00;;;1.60;99.90;;;;;;7350679;32;20242;-54
2024/01/15 06:16:14;;;;;;;16.02;7.70;;;1.60;99.90;;;;;;7359976;32;20247;-55
2024/01/15 06:20:16;;;;;;;12.30;7.15;;;1.60;99.90;;;;;;7370798;32;20138;-55
2024/01/15 06:24:20;;;;;;;14.07;7.22;;;1.60;99.90;;;;;;7366941;32;20224;-55
2024/01/15 06:28:21;;;;;;;16.83;7.32;;;1.60;99.90;;;;;;7361976;32;20233;-57
2024/01/15 06:32:23;;;;;;;12.82;6.85;;;1.60;99.90;;;;;;7365203;32;20208;-56
2024/01/15 06:36:25;;;;;;;11.75;6.28;;;1.60;99.90;;;;;;7365296;32;20135;-56
2024/01/15 06:40:27;;;;;;;9.48;5.32;;;1.60;99.90;;;;;;7361518;32;20117;-54
2024/01/15 06:44:28;;;;;;;12.02;5.72;;;1.60;99.90;;;;;;7356797;32;20296;-54
2024/01/15 06:48:30;;;;;;;8.50;4.32;;;1.60;99.90;;;;;;7368916;32;20217;-54
2024/01/15 06:52:32;;;;;;;12.68;4.95;;;1.60;99.90;;;;;;7367285;32;20175;-56
2024/01/15 06:56:34;;;;;;;7.25;4.40;;;1.50;99.90;;;;;;7366924;32;20119;-56
2024/01/15 07:00:36;;;;;;;7.53;4.40;;;1.50;99.90;;;;;;7364975;32;20623;-55
2024/01/15 07:04:38;;;;;;;6.30;3.83;;;1.60;99.90;;;;;;7374195;32;20221;-55
2024/01/15 07:08:45;;;;;;;13.27;6.43;;;1.60;99.90;;;;;;7372955;32;20164;-55
2024/01/15 07:12:47;;;;;;;9.60;4.65;;;1.60;99.90;;;;;;7374399;32;20245;-54
2024/01/15 07:16:49;;;;;;;6.35;4.12;;;1.50;99.90;;;;;;7361116;32;20133;-54
2024/01/15 07:20:51;;;;;;;8.75;5.10;;;1.40;99.90;;;;;;7369357;32;20245;-56
2024/01/15 07:24:53;;;;;;;8.27;5.12;;;1.30;99.90;;;;;;7359944;32;20373;-55
2024/01/15 07:28:55;;;;;;;10.75;6.30;;;1.30;99.90;;;;;;7362258;32;20131;-55
2024/01/15 07:32:57;;;;;;;13.27;7.12;;;1.30;99.90;;;;;;7358136;32;20558;-57
2024/01/15 07:36:59;;;;;;;13.88;8.65;;;1.20;99.90;;;;;;7363011;32;20174;-57
2024/01/15 07:41:01;;;;;;;15.02;8.77;;;1.40;99.90;;;;;;7364476;32;20460;-56
2024/01/15 07:45:03;;;;;;;17.27;10.40;;;1.40;99.90;;;;;;7364136;32;20151;-57
2024/01/15 07:49:05;;;;;;;15.63;9.85;;;1.40;99.90;;;;;;7364437;32;20111;-57
2024/01/15 07:53:07;;;;;;;18.50;10.27;;;1.50;99.90;;;;;;7367294;32;20107;-58
2024/01/15 07:57:09;;;;;;;15.55;9.15;;;1.50;99.90;;;;;;7368179;32;20135;-56
2024/01/15 08:01:11;;;;;;;15.05;9.93;;;1.50;99.90;;;;;;7356801;32;20114;-56
2024/01/15 08:05:13;;;;;;;17.90;8.93;;;1.50;99.90;;;;;;7363169;32;20126;-57
2024/01/15 08:09:15;;;;;;;16.23;8.63;;;1.40;99.90;;;;;;7366748;32;20100;-57
2024/01/15 08:13:17;;;;;;;17.12;9.80;;;1.40;99.90;;;;;;7364967;32;20510;-56
2024/01/15 08:17:19;;;;;;;16.80;9.30;;;1.30;99.90;;;;;;7362129;32;20129;-57
2024/01/15 08:21:21;;;;;;;14.50;9.18;;;1.30;99.90;;;;;;7367279;32;20139;-57
2024/01/15 08:25:22;;;;;;;17.55;8.40;;;1.20;99.90;;;;;;7368013;32;20126;-58
2024/01/15 08:29:25;;;;;;;16.77;9.60;;;1.20;99.90;;;;;;7364694;32;20158;-58
2024/01/15 08:33:27;;;;;;;13.82;8.93;;;1.20;99.90;;;;;;7355885;32;20196;-56
2024/01/15 08:37:29;;;;;;;13.70;8.70;;;1.20;99.90;;;;;;7360729;32;20134;-56
2024/01/15 08:41:34;;;;;;;15.05;8.85;;;1.20;99.90;;;;;;7356767;32;20131;-55
2024/01/15 08:45:36;;;;;;;16.15;8.80;;;1.10;99.90;;;;;;7356855;32;20564;-58
2024/01/15 08:49:39;;;;;;;14.85;8.48;;;1.10;99.90;;;;;;7358161;32;20099;-59
2024/01/15 08:53:41;;;;;;;15.02;7.60;;;1.10;99.90;;;;;;7359133;32;20522;-59
2024/01/15 08:57:43;;;;;;;17.17;8.15;;;1.00;99.90;;;;;;7356758;32;20804;-60
2024/01/15 09:01:44;;;;;;;11.15;7.20;;;0.90;99.90;;;;;;7358501;32;20171;-57
2024/01/15 09:05:48;;;;;;;10.27;7.12;;;1.00;99.90;;;;;;7360946;32;20198;-58
2024/01/15 09:09:50;;;;;;;9.90;6.32;;;1.00;99.90;;;;;;7359905;32;20587;-57
2024/01/15 09:13:52;;;;;;;11.57;6.37;;;1.00;99.90;;;;;;7352838;32;20345;-57
2024/01/15 09:17:54;;;;;;;10.50;7.05;;;1.00;99.90;;;;;;7360900;32;20152;-58
2024/01/15 09:21:56;;;;;;;11.48;6.20;;;1.00;99.90;;;;;;7358837;32;20276;-57
2024/01/15 09:25:57;;;;;;;8.93;6.10;;;0.90;99.90;;;;;;7357205;32;20161;-58
2024/01/15 09:29:59;;;;;;;7.80;5.65;;;0.90;99.90;;;;;;7363500;32;20591;-57
2024/01/15 09:34:02;;;;;;;8.35;5.87;;;0.80;99.90;;;;;;7357293;32;20629;-57
2024/01/15 09:38:05;;;;;;;7.43;5.95;;;0.90;99.90;;;;;;7364080;32;20103;-58
2024/01/15 09:42:08;;;;;;;17.52;6.07;;;0.90;99.90;;;;;;7358014;32;20680;-57
2024/01/15 09:46:11;;;;;;;10.00;5.85;;;0.90;99.90;;;;;;7349166;32;20356;-56
2024/01/15 09:50:14;;;;;;;8.23;5.90;;;1.10;99.90;;;;;;7360972;32;20111;-57
2024/01/15 09:54:17;;;;;;;7.65;5.70;;;1.10;99.90;;;;;;7354045;32;20118;-57
2024/01/15 09:58:19;;;;;;;7.25;4.78;;;1.10;99.90;;;;;;7349524;32;20137;-57
2024/01/15 10:02:21;;;;;;;7.68;4.82;;;1.10;99.90;;;;;;7360937;32;20207;-57
2024/01/15 10:06:23;;;;;;;5.78;4.60;;;1.10;99.90;;;;;;7348999;32;20212;-56
2024/01/15 10:10:25;;;;;;;6.05;4.45;;;1.10;99.90;;;;;;7356964;32;20743;-59
2024/01/15 10:14:27;;;;;;;6.35;4.32;;;1.10;99.90;;;;;;7357069;32;20194;-57
2024/01/15 10:18:29;;;;;;;6.18;4.55;;;1.10;99.90;;;;;;7353205;32;20115;-58
2024/01/15 10:22:31;;;;;;;6.10;4.12;;;1.10;99.90;;;;;;7355343;32;20128;-58
2024/01/15 10:26:33;;;;;;;6.85;3.90;;;1.10;99.90;;;;;;7355893;32;20436;-59
2024/01/15 10:30:35;;;;;;;5.70;4.20;;;1.20;99.90;;;;;;7353969;32;20156;-59
2024/01/15 10:34:40;;;;;;;6.80;4.35;;;1.20;99.90;;;;;;7351820;32;20441;-57
2024/01/15 10:38:44;;;;;;;5.05;3.55;;;1.30;99.90;;;;;;7353662;32;20184;-57
2024/01/15 10:42:47;;;;;;;5.68;4.12;;;1.30;99.90;;;;;;7357962;32;20211;-57
2024/01/15 10:46:49;;;;;;;7.22;4.10;;;1.20;99.90;;;;;;7351318;32;20281;-59
2024/01/15 10:50:51;;;;;;;5.40;3.87;;;1.20;99.90;;;;;;7351768;32;20194;-57
2024/01/15 10:54:53;;;;;;;5.95;4.12;;;1.20;99.90;;;;;;7359872;32;20242;-58
2024/01/15 10:58:56;;;;;;;6.07;4.15;;;1.20;99.90;;;;;;7363500;32;20194;-58
2024/01/15 11:03:03;;;;;;;7.25;3.83;;;1.30;99.90;;;;;;7360056;32;20558;-57
2024/01/15 11:07:06;;;;;;;5.65;4.32;;;1.50;99.90;;;;;;7362874;32;20300;-57
2024/01/15 11:11:08;;;;;;;8.27;4.53;;;1.60;99.90;;;;;;7364785;32;20269;-57
2024/01/15 11:15:09;;;;;;;6.78;3.35;;;1.60;99.90;;;;;;7362677;32;20163;-58
2024/01/15 11:19:12;;;;;;;8.00;3.72;;;1.60;99.90;;;;;;7358092;32;20117;-58
2024/01/15 11:23:47;;;;;;;7.20;3.10;;;1.60;99.90;;;;;;7358701;32;20124;-57
2024/01/15 11:27:55;;;;;;;6.25;3.12;;;1.50;99.90;;;;;;7362445;32;20480;-57
2024/01/15 11:32:10;;;;;;;4.25;2.83;;;1.50;99.90;;;;;;7365079;32;20521;-56
2024/01/15 11:36:12;;;;;;;7.15;2.45;;;1.50;99.90;;;;;;7368400;32;20166;-56
2024/01/15 11:40:21;;;;;;;5.57;2.12;;;1.40;99.90;;;;;;7354880;32;20107;-57
2024/01/15 11:44:23;;;;;;;4.12;2.78;;;1.50;99.90;;;;;;7355898;32;20427;-57
2024/01/15 11:48:40;;;;;;;5.97;2.05;;;1.70;99.90;;;;;;7355874;32;20115;-59
2024/01/15 11:52:48;;;;;;;3.85;1.83;;;1.90;99.90;;;;;;7355600;32;20103;-58
2024/01/15 11:56:50;;;;;;;3.42;1.80;;;1.90;99.90;;;;;;7364124;32;20651;-57
2024/01/15 12:00:52;;;;;;;9.02;2.17;;;1.80;99.90;;;;;;7356203;32;20129;-57
2024/01/15 12:04:55;;;;;;;5.45;1.95;;;1.70;99.90;;;;;;7361282;32;20126;-59
2024/01/15 12:09:07;;;;;;;5.95;1.75;;;1.70;99.90;;;;;;7356679;32;20402;-57
2024/01/15 12:13:14;;;;;;;4.70;1.98;;;1.70;99.90;;;;;;7358681;32;20351;-59
2024/01/15 12:17:16;;;;;;;3.50;2.00;;;1.70;99.90;;;;;;7353549;32;20615;-58
2024/01/15 12:21:18;;;;;;;7.28;2.20;;;1.90;99.90;;;;;;7359465;32;20313;-58
2024/01/15 12:25:20;;;;;;;5.12;1.80;;;1.90;99.90;;;;;;7365266;32;20149;-58
2024/01/15 12:29:21;;;;;;;4.10;2.00;;;1.90;99.90;;;;;;7360257;32;20363;-58
2024/01/15 12:33:23;;;;;;;4.65;2.22;;;1.90;99.90;;;;;;7361640;32;20160;-58
2024/01/15 12:37:26;;;;;;;4.80;2.20;;;1.90;99.90;;;;;;7363781;32;20131;-58
2024/01/15 12:41:27;;;;;;;4.70;2.20;;;2.00;99.90;;;;;;7355330;32;20297;-58
2024/01/15 12:45:30;;;;;;;4.82;2.33;;;2.10;99.90;;;;;;7363328;32;20138;-59
2024/01/15 12:49:33;;;;;;;5.90;3.00;;;2.20;99.90;;;;;;7363586;32;20125;-59
2024/01/15 12:53:35;;;;;;;4.82;2.70;;;2.10;99.90;;;;;;7357942;32;20103;-57
2024/01/15 12:57:37;;;;;;;5.93;3.70;;;2.10;99.90;;;;;;7354863;32;20586;-59
2024/01/15 13:01:40;;;;;;;10.05;4.07;;;2.10;99.90;;;;;;7363146;32;20578;-55
2024/01/15 13:05:42;;;;;;;6.15;4.00;;;2.00;99.90;;;;;;7358587;32;20678;-57
2024/01/15 13:09:44;;;;;;;8.43;4.40;;;2.00;99.90;;;;;;7357401;32;20156;-56
2024/01/15 13:13:45;;;;;;;7.10;4.35;;;2.00;99.90;;;;;;7361844;32;20134;-57
2024/01/15 13:17:47;;;;;;;8.25;4.25;;;1.90;99.90;;;;;;7357951;32;20281;-56
2024/01/15 13:21:53;;;;;;;9.57;4.70;;;1.90;99.90;;;;;;7355989;32;20362;-57
2024/01/15 13:25:55;;;;;;;7.40;4.47;;;1.90;99.90;;;;;;7357385;32;20142;-57
2024/01/15 13:29:56;;;;;;;10.45;4.97;;;2.00;99.90;;;;;;7364206;32;20131;-57
2024/01/15 13:33:59;;;;;;;9.07;4.43;;;1.80;99.90;;;;;;7362536;32;20287;-57
2024/01/15 13:38:01;;;;;;;7.25;4.00;;;1.80;99.90;;;;;;7356443;32;20225;-57
2024/01/15 13:42:03;;;;;;;10.68;5.62;;;1.80;99.90;;;;;;7342779;32;20233;-57
2024/01/15 13:46:05;;;;;;;7.95;4.03;;;1.80;99.90;;;;;;7363094;32;20134;-56
2024/01/15 13:50:07;;;;;;;6.72;3.72;;;1.80;99.90;;;;;;7357961;32;20228;-58
2024/01/15 13:54:09;;;;;;;8.38;3.28;;;1.80;99.90;;;;;;7360038;32;20204;-57
2024/01/15 13:58:11;;;;;;;7.53;3.83;;;1.70;99.90;;;;;;7359813;32;20107;-57
2024/01/15 14:02:14;;;;;;;5.22;3.42;;;1.70;99.90;;;;;;7360324;32;20100;-58
2024/01/15 14:06:21;;;;;;;6.28;3.25;;;1.80;99.90;;;;;;7356131;32;20280;-58
2024/01/15 14:10:22;;;;;;;7.60;3.20;;;1.80;99.90;;;;;;7356656;32;20107;-58
2024/01/15 14:14:24;;;;;;;5.10;3.05;;;1.80;99.90;;;;;;7353125;32;20585;-56
2024/01/15 14:18:27;;;;;;;3.35;2.10;;;1.80;99.90;;;;;;7351020;32;20213;-56
2024/01/15 14:22:32;;;;;;;3.03;1.70;;;1.90;99.90;;;;;;7360058;32;20137;-55
2024/01/15 14:26:34;;;;;;;10.70;3.62;;;1.90;99.90;;;;;;7359293;32;20202;-56
2024/01/15 14:30:36;;;;;;;2.33;1.45;;;1.90;99.90;;;;;;7356160;32;21072;-55
2024/01/15 14:34:38;;;;;;;2.72;1.40;;;1.80;99.90;;;;;;7356664;32;20160;-55
2024/01/15 14:38:39;;;;;;;2.50;1.30;;;1.80;99.90;;;;;;7357214;32;20103;-56
2024/01/15 14:42:42;;;;;;;2.40;1.30;;;1.90;99.90;;;;;;7357215;32;20123;-55
2024/01/15 14:46:43;;;;;;;3.65;1.62;;;1.80;99.90;;;;;;7358654;32;20137;-57
2024/01/15 14:50:45;;;;;;;2.60;1.83;;;1.70;99.90;;;;;;7365837;32;20131;-58
2024/01/15 14:54:47;;;;;;;10.18;8.07;;;1.80;99.90;;;;;;7369898;32;20553;-62
2024/01/15 14:58:49;;;;;;;2.80;2.00;;;1.80;99.90;;;;;;7353075;32;20292;-56
2024/01/15 15:02:51;;;;;;;3.03;2.25;;;1.90;99.90;;;;;;7354103;32;20212;-55
2024/01/15 15:06:53;;;;;;;3.17;1.80;;;1.80;99.90;;;;;;7358144;32;20102;-56
2024/01/15 15:10:56;;;;;;;3.42;1.90;;;1.80;99.90;;;;;;7359510;32;20207;-56
2024/01/15 15:14:58;;;;;;;3.35;2.55;;;1.70;99.90;;;;;;7360330;32;20291;-57
2024/01/15 15:19:10;;;;;;;5.03;1.58;;;1.70;99.90;;;;;;7367168;32;20210;-55
2024/01/15 15:23:12;;;;;;;5.15;1.62;;;1.70;99.90;;;;;;7356478;32;20187;-57
2024/01/15 15:27:14;;;;;;;3.65;1.90;;;1.70;99.90;;;;;;7365041;32;20201;-55
2024/01/15 15:31:16;;;;;;;2.17;1.20;;;1.70;99.90;;;;;;7361963;32;20102;-57
2024/01/15 15:35:18;;;;;;;6.32;3.28;;;1.60;99.90;;;;;;7363071;32;20186;-56
2024/01/15 15:39:20;;;;;;;4.65;1.90;;;1.70;99.90;;;;;;7361095;32;20212;-58
2024/01/15 15:43:22;;;;;;;4.78;3.03;;;1.60;99.90;;;;;;7358443;32;20281;-55
2024/01/15 15:47:24;;;;;;;5.37;2.80;;;1.50;99.90;;;;;;7355646;32;20615;-55
2024/01/15 15:51:26;;;;;;;13.32;6.57;;;1.50;99.90;;;;;;7360337;32;20107;-56
2024/01/15 15:55:27;;;;;;;5.07;2.87;;;1.50;99.90;;;;;;7360907;32;20960;-55
2024/01/15 15:59:29;;;;;;;4.25;2.58;;;1.40;99.90;;;;;;7358707;32;20126;-58
2024/01/15 16:03:31;;;;;;;6.45;4.87;;;1.40;99.90;;;;;;7352741;32;20182;-58
2024/01/15 16:07:33;;;;;;;3.40;2.33;;;1.40;99.90;;;;;;7361756;32;20162;-56
2024/01/15 16:11:35;;;;;;;6.65;3.60;;;1.30;99.90;;;;;;7354813;32;20131;-56
2024/01/15 16:15:37;;;;;;;5.10;2.28;;;1.30;99.90;;;;;;7358375;32;20118;-57
2024/01/15 16:19:39;;;;;;;6.95;3.78;;;1.20;99.90;;;;;;7354449;32;20143;-56
2024/01/15 16:24:01;;;;;;;6.72;3.70;;;1.20;99.90;;;;;;7361376;32;20127;-55
2024/01/15 16:28:23;;;;;;;9.50;5.22;;;1.20;99.90;;;;;;7357019;32;20123;-56
2024/01/15 16:32:25;;;;;;;12.37;4.72;;;1.20;99.90;;;;;;7358231;32;20229;-57
2024/01/15 16:36:27;;;;;;;4.75;2.42;;;1.20;99.90;;;;;;7356020;32;20200;-56
2024/01/15 16:40:29;;;;;;;8.68;4.55;;;1.00;99.90;;;;;;7350061;32;20873;-56
2024/01/15 16:44:32;;;;;;;8.20;4.35;;;1.10;99.90;;;;;;7363203;32;20425;-55
2024/01/15 16:48:34;;;;;;;11.32;5.47;;;1.10;99.90;;;;;;7361634;32;20272;-56
2024/01/15 16:52:36;;;;;;;6.32;2.60;;;1.20;99.90;;;;;;7353170;32;20184;-57
2024/01/15 16:56:37;;;;;;;19.92;11.40;;;1.20;99.90;;;;;;7363390;32;20465;-56
2024/01/15 17:00:39;;;;;;;5.40;4.07;;;1.20;99.90;;;;;;7344398;32;20698;-56
2024/01/15 17:04:41;;;;;;;8.85;4.22;;;1.20;99.90;;;;;;7363756;32;20644;-56
2024/01/15 17:08:42;;;;;;;13.25;6.43;;;1.20;99.90;;;;;;7360855;32;20095;-57
2024/01/15 17:12:44;;;;;;;11.38;5.90;;;1.20;99.90;;;;;;7357519;32;20141;-57
2024/01/15 17:16:46;;;;;;;15.23;6.28;;;1.10;99.90;;;;;;7366535;32;20179;-56
2024/01/15 17:20:48;;;;;;;19.33;7.95;;;1.10;99.90;;;;;;7361589;32;20256;-57
2024/01/15 17:24:49;;;;;;;14.32;8.20;;;1.00;99.90;;;;;;7359508;32;20625;-56
2024/01/15 17:28:51;;;;;;;8.93;5.47;;;0.90;99.90;;;;;;7355364;32;20215;-56
2024/01/15 17:32:53;;;;;;;8.68;4.03;;;0.90;99.90;;;;;;7357244;32;20123;-55
2024/01/15 17:36:55;;;;;;;9.90;3.25;;;0.80;99.90;;;;;;7362702;32;20211;-56
2024/01/15 17:40:57;;;;;;;11.20;6.22;;;0.90;99.90;;;;;;7353723;32;20121;-55
2024/01/15 17:44:59;;;;;;;11.55;7.43;;;0.90;99.90;;;;;;7360811;32;20178;-56
2024/01/15 17:49:04;;;;;;;11.00;3.47;;;0.90;99.90;;;;;;7360156;32;20501;-55
2024/01/15 17:53:06;;;;;;;20.42;10.82;;;0.90;99.90;;;;;;7362708;32;20145;-58
2024/01/15 17:57:08;;;;;;;8.77;4.72;;;1.00;99.90;;;;;;7355415;32;20226;-56
2024/01/15 18:01:10;;;;;;;7.57;3.35;;;1.00;99.90;;;;;;7359427;32;20191;-57
2024/01/15 18:05:13;;;;;;;11.40;5.62;;;1.00;99.90;;;;;;7358255;32;20239;-56
2024/01/15 18:09:19;;;;;;;8.98;4.32;;;1.10;99.90;;;;;;7359727;32;20236;-55
2024/01/15 18:13:20;;;;;;;8.63;2.70;;;1.00;99.90;;;;;;7363971;32;20110;-57
2024/01/15 18:17:23;;;;;;;9.40;4.25;;;1.00;99.90;;;;;;7368838;32;20176;-56
2024/01/15 18:21:25;;;;;;;10.05;3.47;;;1.10;99.90;;;;;;7354720;32;20529;-57
2024/01/15 18:25:27;;;;;;;7.45;3.62;;;1.10;99.90;;;;;;7360141;32;20289;-57
2024/01/15 18:29:29;;;;;;;9.50;3.35;;;1.10;99.90;;;;;;7368528;32;20102;-56
2024/01/15 18:33:31;;;;;;;9.60;3.58;;;1.10;99.90;;;;;;7360855;32;20169;-56
2024/01/15 18:37:33;;;;;;;5.87;3.40;;;1.20;99.90;;;;;;7366411;32;20122;-56
2024/01/15 18:41:36;;;;;;;10.52;4.55;;;1.10;99.90;;;;;;7356094;32;20237;-56
2024/01/15 18:45:38;;;;;;;7.55;3.50;;;1.20;99.90;;;;;;7358693;32;20125;-58
2024/01/15 18:49:42;;;;;;;12.73;4.32;;;1.10;99.90;;;;;;7357633;32;20680;-56
2024/01/15 18:53:44;;;;;;;8.40;3.20;;;1.10;99.90;;;;;;7362324;32;20103;-56
2024/01/15 18:57:46;;;;;;;10.02;3.47;;;1.20;99.90;;;;;;7366194;32;20126;-58
2024/01/15 19:01:49;;;;;;;10.07;3.33;;;1.20;99.90;;;;;;7361931;32;20182;-57
2024/01/15 19:05:51;;;;;;;6.25;2.97;;;1.20;99.90;;;;;;7366004;32;20277;-56
2024/01/15 19:09:53;;;;;;;4.70;2.10;;;1.20;99.90;;;;;;7372708;32;20168;-56
2024/01/15 19:13:54;;;;;;;7.22;2.65;;;1.20;99.90;;;;;;7360551;32;20240;-56
2024/01/15 19:17:56;;;;;;;5.90;1.92;;;1.10;99.90;;;;;;7356354;32;20163;-57
2024/01/15 19:21:58;;;;;;;6.75;2.80;;;1.00;99.90;;;;;;7359708;32;20122;-56
2024/01/15 19:26:01;;;;;;;11.25;3.10;;;0.90;99.90;;;;;;7364044;32;20119;-55
2024/01/15 19:30:03;;;;;;;12.32;2.65;;;1.00;99.90;;;;;;7353958;32;20664;-56
2024/01/15 19:34:05;;;;;;;9.95;2.65;;;1.00;99.90;;;;;;7340870;32;20237;-59
2024/01/15 19:38:07;;;;;;;10.40;3.10;;;1.30;99.90;;;;;;7361143;32;20390;-55
2024/01/15 19:42:09;;;;;;;8.82;2.08;;;1.20;99.90;;;;;;7356898;32;20160;-54
2024/01/15 19:46:10;;;;;;;11.65;3.30;;;1.10;99.90;;;;;;7356880;32;20509;-54
2024/01/15 19:50:12;;;;;;;7.53;2.83;;;1.00;99.90;;;;;;7356432;32;20501;-56
2024/01/15 19:54:14;;;;;;;9.85;3.08;;;1.00;99.90;;;;;;7362527;32;20134;-56
2024/01/15 19:58:16;;;;;;;9.75;3.28;;;1.00;99.90;;;;;;7355907;32;20131;-57
2024/01/15 20:02:17;;;;;;;14.30;3.40;;;1.00;99.90;;;;;;7355457;32;20211;-56
2024/01/15 20:06:19;;;;;;;10.07;3.45;;;1.10;99.90;;;;;;7355525;32;20199;-56
2024/01/15 20:10:21;;;;;;;13.85;4.30;;;1.00;99.90;;;;;;7362224;32;20149;-56
2024/01/15 20:14:25;;;;;;;9.85;3.72;;;1.00;99.90;;;;;;7360898;32;20583;-59
2024/01/15 20:18:27;;;;;;;11.52;4.57;;;1.00;99.90;;;;;;7358050;32;20146;-58
2024/01/15 20:22:29;;;;;;;11.45;4.80;;;0.90;99.90;;;;;;7358497;32;20181;-57
2024/01/15 20:26:35;;;;;;;15.37;5.40;;;1.00;99.90;;;;;;7361634;32;20125;-58
2024/01/15 20:30:37;;;;;;;14.02;5.82;;;1.00;99.90;;;;;;7362074;32;20728;-58
2024/01/15 20:34:39;;;;;;;19.02;5.62;;;0.90;99.90;;;;;;7356265;32;20103;-56
2024/01/15 20:38:40;;;;;;;14.13;5.40;;;0.90;99.90;;;;;;7359701;32;20121;-57
2024/01/15 20:42:42;;;;;;;11.75;5.25;;;0.90;99.90;;;;;;7360974;32;20494;-56
2024/01/15 20:46:44;;;;;;;11.73;6.00;;;0.90;99.90;;;;;;7362159;32;20139;-60
2024/01/15 20:50:46;;;;;;;15.38;5.43;;;0.90;99.90;;;;;;7356074;32;20241;-57
2024/01/15 20:57:46;;;;;;;12.13;5.45;;;1.00;99.90;;;;;;7400695;31;20095;-56
2024/01/15 21:01:48;;;;;;;14.25;6.35;;;1.10;99.90;;;;;;7376471;32;20128;-56
2024/01/15 21:05:50;;;;;;;16.25;5.85;;;1.10;99.90;;;;;;7365776;32;20146;-57